Goodville, PA (17528)

9:08 PM EST on March 01, 2015 (GMT -0500)
Welsh Mountain | Change Station
CLOSE
Current Station
Personal Weather Station
Location: New Holland, PA
Elevation: 1043 ft
Nearby Weather Stations

Elev 1043 ft 40.08 °N, 76.02 °W | Updated 10 seconds ago

Overcast
Overcast
27.7 °F
Feels Like 28 °F
N
2.3
Wind Variable Wind from West
Gusts 2.3 mph

Today
High -- | Low -- °F
--% Chance of Precip.
Yesterday
High -- | Low -- °F
Precip. -- in
6:37 AM 5:55 PM
Waxing Gibbous, 88% visible
Pressure 30.22 in
Visibility 4.0 miles
Clouds Overcast 300 ft
Windchill 28 °F
Dew Point 24 °F
Humidity 87%
Rainfall 0.00 in
Snow Depth Not available.
UV 0 out of 12
Pollen .50 out of 12
Air Quality Not available.
Flu Activity Not available.
METAR KMQS 020155Z AUTO 00000KT 4SM BR OVC003 00/00 A3022 RMK AO2

More Conditions Fewer Conditions

Pressure 30.22 in
Visibility 4.0 miles
Clouds Overcast 300 ft
Windchill 28 °F
Dew Point 24 °F
Humidity 87%
Rainfall 0.00 in
Snow Depth Not available.
UV 0 out of 12
Pollen .50 out of 12
Air Quality Not available.
Flu Activity Not available.
METAR KMQS 020155Z AUTO 00000KT 4SM BR OVC003 00/00 A3022 RMK AO2

More Conditions Fewer Conditions

10-Day Weather Forecast

Almanac

Astronomy

Mar. 01, 2015 Rise Set
Actual Time
Civil Twilight
Nautical Twilight
Astronomical Twilight
Moon
Length of Visible Light
Length of Day
Tomorrow will be .
, % of the Moon is Illuminated

Today's Extremes

State Highs State Lows

Community

WunderPhotos

Upload Photos

1,801,679 photos uploaded!

WunderBlogs® & News

Nearby

Air Quality

  Air Quality AQ Index Pollutant
Not available.

Snow Depth

Station Depth Elevation

Earthquake Activity

City Distance Mag. Time & Date
Minimum magnitude displayed is 2.5.

Coastal Water Temperatures

Place Temperature

Nearby Weather Stations

Winter Weather Advisory
Statement as of 7:57 PM EST on March 01, 2015

... Winter Weather Advisory remains in effect until 2 am EST
Monday...

* locations... the lower Susquehanna River valley.

* Hazard types... freezing drizzle and patchy light snow.

* Additional snow accumulations... little to none.

* Additional ice accumulations... a very thin glaze.

* Timing... the steady precipitation is over. Expect patchy
freezing drizzle and snow showers to gradually diminish through
9 or 10 PM.

* Impacts... hazardous travel due to icy or slushy roads.
Untreated sidewalks will also be icy.

Precautionary/preparedness actions...

Hazardous winter weather conditions are expected or occurring.
Use caution if traveling. For the latest weather information... go
to weather.Gov/statecollege or monitor NOAA Weather Radio.

Report snow or ice accumulation to the National Weather Service
State College by sending an email to ctp.Stormreports@noaa.Gov...
posting to the NWS State College facebook Page... or tweet
@nwsstatecollege with the hashtag c... T... p... W... x.